Time,TemperatureF,DewpointF,PressureIn,WindDirection,WindDirectionDegrees,WindSpeedMPH,WindSpeedGustMPH,Humidity,HourlyPrecipIn,Conditions,Clouds,dailyrainin,SoftwareType,DateUTC
2013-01-06 00:02:00,37.8,32.5,30.08,ESE,113,0.2,0.7,81,0.00,,,0.00,WUHU216HW,2013-01-06 05:02:00,
2013-01-06 00:07:00,37.8,32.5,30.09,SE,135,0.4,0.4,81,0.00,,,0.00,WUHU216HW,2013-01-06 05:07:00,
2013-01-06 00:12:00,38.2,33.1,30.07,SE,135,0.2,0.9,82,0.00,,,0.00,WUHU216HW,2013-01-06 05:12:00,
2013-01-06 00:17:00,38.5,33.5,30.08,ESE,113,0.4,1.1,82,0.00,,,0.00,WUHU216HW,2013-01-06 05:17:00,
2013-01-06 00:22:00,38.7,33.4,30.08,SE,135,0.0,1.1,81,0.00,,,0.00,WUHU216HW,2013-01-06 05:22:00,
2013-01-06 00:27:00,38.9,33.6,30.08,SE,135,0.0,0.7,81,0.00,,,0.00,WUHU216HW,2013-01-06 05:27:00,
2013-01-06 00:32:00,39.1,34.9,30.07,SE,135,0.9,1.1,85,0.00,,,0.00,WUHU216HW,2013-01-06 05:32:00,
2013-01-06 00:37:00,39.2,34.2,30.08,SSW,203,0.4,1.1,82,0.00,,,0.00,WUHU216HW,2013-01-06 05:37:00,
2013-01-06 00:42:00,39.2,34.2,30.07,SSW,203,0.0,0.9,82,0.00,,,0.00,WUHU216HW,2013-01-06 05:42:00,
2013-01-06 00:47:00,39.2,34.2,30.09,SSE,158,0.2,0.4,82,0.00,,,0.00,WUHU216HW,2013-01-06 05:47:00,
2013-01-06 00:52:00,39.2,34.2,30.07,SSW,203,0.0,0.4,82,0.00,,,0.00,WUHU216HW,2013-01-06 05:52:00,
2013-01-06 00:57:00,39.2,34.6,30.07,SSW,203,0.0,0.4,83,0.00,,,0.00,WUHU216HW,2013-01-06 05:57:00,
2013-01-06 01:02:00,39.2,34.2,30.08,SSW,203,0.0,0.0,82,0.00,,,0.00,WUHU216HW,2013-01-06 06:02:00,
2013-01-06 01:07:00,39.2,34.2,30.07,South,180,0.0,0.2,82,0.00,,,0.00,WUHU216HW,2013-01-06 06:07:00,
2013-01-06 01:12:00,39.2,34.2,30.08,South,180,0.0,0.4,82,0.00,,,0.00,WUHU216HW,2013-01-06 06:12:00,
2013-01-06 01:17:00,39.2,34.2,30.07,South,180,0.0,0.4,82,0.00,,,0.00,WUHU216HW,2013-01-06 06:17:00,
2013-01-06 01:22:00,39.2,34.2,30.08,South,180,0.0,0.0,82,0.00,,,0.00,WUHU216HW,2013-01-06 06:22:00,
2013-01-06 01:27:00,39.2,34.2,30.07,South,180,0.2,0.2,82,0.00,,,0.00,WUHU216HW,2013-01-06 06:27:00,
2013-01-06 01:32:00,39.2,33.9,30.07,SSW,203,0.0,0.9,81,0.00,,,0.00,WUHU216HW,2013-01-06 06:32:00,
2013-01-06 01:37:00,39.2,33.9,30.08,SSW,203,0.0,0.9,81,0.00,,,0.00,WUHU216HW,2013-01-06 06:37:00,
2013-01-06 01:42:00,39.2,33.9,30.07,SSW,203,0.0,0.0,81,0.00,,,0.00,WUHU216HW,2013-01-06 06:42:00,
2013-01-06 01:47:00,39.2,33.9,30.09,SSW,203,0.0,0.0,81,0.00,,,0.00,WUHU216HW,2013-01-06 06:47:00,
2013-01-06 01:52:00,39.2,33.9,30.09,SSW,203,0.0,0.0,81,0.00,,,0.00,WUHU216HW,2013-01-06 06:52:00,
2013-01-06 01:58:00,39.2,33.7,30.08,SSW,203,0.0,0.0,80,0.00,,,0.00,WUHU216HW,2013-01-06 06:58:00,
2013-01-06 02:02:00,39.2,33.7,30.08,SSW,203,0.0,0.0,80,0.00,,,0.00,WUHU216HW,2013-01-06 07:02:00,
2013-01-06 02:08:00,39.1,33.5,30.09,SSW,203,0.0,0.0,80,0.00,,,0.00,WUHU216HW,2013-01-06 07:08:00,
2013-01-06 02:13:00,39.1,33.5,30.08,SSW,203,0.0,0.0,80,0.00,,,0.00,WUHU216HW,2013-01-06 07:13:00,
2013-01-06 02:18:00,39.1,33.5,30.08,SSW,203,0.0,0.0,80,0.00,,,0.00,WUHU216HW,2013-01-06 07:18:00,
2013-01-06 02:23:00,38.9,34.2,30.07,SSW,203,0.0,0.0,83,0.00,,,0.00,WUHU216HW,2013-01-06 07:23:00,
2013-01-06 02:28:00,38.7,33.7,30.08,SSW,203,0.0,0.0,82,0.00,,,0.00,WUHU216HW,2013-01-06 07:28:00,
2013-01-06 02:33:00,38.7,33.7,30.08,SSW,203,0.0,0.0,82,0.00,,,0.00,WUHU216HW,2013-01-06 07:33:00,
2013-01-06 02:38:00,38.7,33.7,30.08,SE,135,0.4,1.1,82,0.00,,,0.00,WUHU216HW,2013-01-06 07:38:00,
2013-01-06 02:43:00,38.7,33.7,30.08,SE,135,0.4,1.1,82,0.00,,,0.00,WUHU216HW,2013-01-06 07:43:00,
2013-01-06 02:48:00,38.7,33.7,30.07,SE,135,0.0,0.7,82,0.00,,,0.00,WUHU216HW,2013-01-06 07:48:00,
2013-01-06 02:53:00,38.7,34.0,30.07,SE,135,0.4,1.1,83,0.00,,,0.00,WUHU216HW,2013-01-06 07:53:00,
2013-01-06 02:58:00,38.7,34.3,30.07,SE,135,0.0,1.1,84,0.00,,,0.00,WUHU216HW,2013-01-06 07:58:00,
2013-01-06 03:03:00,38.7,34.0,30.06,SE,135,0.0,0.4,83,0.00,,,0.00,WUHU216HW,2013-01-06 08:03:00,
2013-01-06 03:08:00,38.7,34.0,30.06,SE,135,0.0,0.4,83,0.00,,,0.00,WUHU216HW,2013-01-06 08:08:00,
2013-01-06 03:13:00,38.9,34.5,30.06,SE,135,0.7,0.7,84,0.00,,,0.00,WUHU216HW,2013-01-06 08:13:00,
2013-01-06 03:18:00,38.9,34.5,30.06,SE,135,0.0,1.8,84,0.00,,,0.00,WUHU216HW,2013-01-06 08:18:00,
2013-01-06 03:23:00,39.1,34.7,30.06,SE,135,0.4,1.8,84,0.00,,,0.00,WUHU216HW,2013-01-06 08:23:00,
2013-01-06 03:28:00,39.4,35.8,30.06,SE,135,1.1,1.8,87,0.00,,,0.00,WUHU216HW,2013-01-06 08:28:00,
2013-01-06 03:33:00,39.6,35.7,30.05,ESE,113,0.2,1.8,86,0.00,,,0.00,WUHU216HW,2013-01-06 08:33:00,
2013-01-06 03:38:00,40.0,36.1,30.05,SE,135,0.0,2.7,86,0.00,,,0.00,WUHU216HW,2013-01-06 08:38:00,
2013-01-06 03:43:00,40.0,35.8,30.05,SE,135,0.0,2.7,85,0.00,,,0.00,WUHU216HW,2013-01-06 08:43:00,
2013-01-06 03:48:00,40.1,35.6,30.05,SE,135,0.0,0.9,84,0.00,,,0.00,WUHU216HW,2013-01-06 08:48:00,
2013-01-06 03:53:00,40.3,36.5,30.05,SE,135,0.9,2.7,86,0.00,,,0.00,WUHU216HW,2013-01-06 08:53:00,
2013-01-06 03:58:00,40.5,36.3,30.05,ESE,113,0.0,2.7,85,0.00,,,0.00,WUHU216HW,2013-01-06 08:58:00,
2013-01-06 04:03:00,40.7,36.5,30.04,North,0,0.0,1.8,85,0.00,,,0.00,WUHU216HW,2013-01-06 09:03:00,
2013-01-06 04:08:00,40.9,36.6,30.04,SSE,158,0.4,1.8,85,0.00,,,0.00,WUHU216HW,2013-01-06 09:08:00,
2013-01-06 04:13:00,41.0,37.1,30.04,WNW,293,0.4,2.0,86,0.00,,,0.00,WUHU216HW,2013-01-06 09:13:00,
2013-01-06 04:18:00,41.4,37.2,30.04,SE,135,1.3,2.0,85,0.00,,,0.00,WUHU216HW,2013-01-06 09:18:00,
2013-01-06 04:23:00,41.4,36.9,30.03,SSW,203,0.0,1.3,84,0.00,,,0.00,WUHU216HW,2013-01-06 09:23:00,
2013-01-06 04:28:00,41.6,37.1,30.03,SE,135,0.0,1.8,84,0.00,,,0.00,WUHU216HW,2013-01-06 09:28:00,
2013-01-06 04:33:00,41.8,37.5,30.02,SSE,158,0.4,1.8,85,0.00,,,0.00,WUHU216HW,2013-01-06 09:33:00,
2013-01-06 04:38:00,41.9,37.7,30.03,NW,315,0.0,0.9,85,0.00,,,0.00,WUHU216HW,2013-01-06 09:38:00,
2013-01-06 04:43:00,41.9,37.7,30.02,SE,135,0.2,0.7,85,0.00,,,0.00,WUHU216HW,2013-01-06 09:43:00,
2013-01-06 04:48:00,42.1,37.9,30.02,West,270,0.0,1.3,85,0.00,,,0.00,WUHU216HW,2013-01-06 09:48:00,
2013-01-06 04:53:00,42.1,37.9,30.02,SE,135,0.0,1.3,85,0.00,,,0.00,WUHU216HW,2013-01-06 09:53:00,
2013-01-06 04:58:00,42.1,37.9,30.02,SE,135,0.4,0.7,85,0.00,,,0.00,WUHU216HW,2013-01-06 09:58:00,
2013-01-06 05:03:00,42.1,37.6,30.02,SE,135,0.7,0.7,84,0.00,,,0.00,WUHU216HW,2013-01-06 10:03:00,
2013-01-06 05:08:00,42.1,37.6,30.02,ENE,68,0.0,0.7,84,0.00,,,0.00,WUHU216HW,2013-01-06 10:08:00,
2013-01-06 05:13:00,42.3,37.8,30.01,WSW,248,0.0,0.4,84,0.00,,,0.00,WUHU216HW,2013-01-06 10:13:00,
2013-01-06 05:18:00,42.3,37.8,30.01,WNW,293,0.0,0.4,84,0.00,,,0.00,WUHU216HW,2013-01-06 10:18:00,
2013-01-06 05:23:00,42.3,37.8,30.01,WNW,293,0.0,0.2,84,0.00,,,0.00,WUHU216HW,2013-01-06 10:23:00,
2013-01-06 05:28:00,42.5,38.0,30.01,SSW,203,0.2,1.8,84,0.00,,,0.00,WUHU216HW,2013-01-06 10:28:00,
2013-01-06 05:33:00,42.7,38.4,30.02,SE,135,0.4,1.8,85,0.00,,,0.00,WUHU216HW,2013-01-06 10:33:00,
2013-01-06 05:38:00,42.7,38.2,30.01,ENE,68,0.0,0.4,84,0.00,,,0.00,WUHU216HW,2013-01-06 10:38:00,
2013-01-06 05:43:00,42.8,38.4,30.01,NW,315,0.4,0.9,84,0.00,,,0.00,WUHU216HW,2013-01-06 10:43:00,
2013-01-06 05:48:00,42.8,38.0,30.02,WNW,293,0.2,0.9,83,0.00,,,0.00,WUHU216HW,2013-01-06 10:48:00,
2013-01-06 05:53:00,42.8,38.0,30.02,NW,315,1.1,1.1,83,0.00,,,0.00,WUHU216HW,2013-01-06 10:53:00,
2013-01-06 05:58:00,42.8,38.4,30.01,WNW,293,0.7,1.1,84,0.00,,,0.00,WUHU216HW,2013-01-06 10:58:00,
2013-01-06 06:03:00,42.8,38.0,30.02,WNW,293,0.0,1.1,83,0.00,,,0.00,WUHU216HW,2013-01-06 11:03:00,
2013-01-06 06:08:00,42.7,37.8,30.02,SW,225,0.0,0.9,83,0.00,,,0.00,WUHU216HW,2013-01-06 11:08:00,
2013-01-06 06:13:00,42.7,37.8,30.02,NW,315,0.0,0.9,83,0.00,,,0.00,WUHU216HW,2013-01-06 11:13:00,
2013-01-06 06:18:00,42.5,37.6,30.02,NW,315,0.0,0.4,83,0.00,,,0.00,WUHU216HW,2013-01-06 11:18:00,
2013-01-06 06:23:00,42.5,37.6,30.02,South,180,0.0,0.7,83,0.00,,,0.00,WUHU216HW,2013-01-06 11:23:00,
2013-01-06 06:28:00,42.5,37.6,30.02,South,180,0.0,0.7,83,0.00,,,0.00,WUHU216HW,2013-01-06 11:28:00,
2013-01-06 06:33:00,42.3,37.4,30.03,South,180,0.0,0.0,83,0.00,,,0.00,WUHU216HW,2013-01-06 11:33:00,
2013-01-06 06:38:00,42.3,37.4,30.02,South,180,0.0,0.0,83,0.00,,,0.00,WUHU216HW,2013-01-06 11:38:00,
2013-01-06 06:43:00,42.1,37.3,30.02,SW,225,0.0,0.4,83,0.00,,,0.00,WUHU216HW,2013-01-06 11:43:00,
2013-01-06 06:48:00,42.1,37.3,30.02,SW,225,0.0,0.4,83,0.00,,,0.00,WUHU216HW,2013-01-06 11:48:00,
2013-01-06 06:53:00,42.1,37.3,30.02,SW,225,0.0,0.2,83,0.00,,,0.00,WUHU216HW,2013-01-06 11:53:00,
2013-01-06 06:58:00,41.9,37.5,30.02,SSW,203,0.0,0.0,84,0.00,,,0.00,WUHU216HW,2013-01-06 11:58:00,
2013-01-06 07:03:00,41.9,37.1,30.02,SSW,203,0.0,0.0,83,0.00,,,0.00,WUHU216HW,2013-01-06 12:03:00,
2013-01-06 07:08:00,41.8,36.9,30.03,SSE,158,0.4,0.7,83,0.00,,,0.00,WUHU216HW,2013-01-06 12:08:00,
2013-01-06 07:13:00,41.6,36.5,30.04,SSE,158,0.0,0.9,82,0.00,,,0.00,WUHU216HW,2013-01-06 12:13:00,
2013-01-06 07:18:00,41.6,36.5,30.03,SE,135,0.0,0.9,82,0.00,,,0.00,WUHU216HW,2013-01-06 12:18:00,
2013-01-06 07:23:00,41.4,36.3,30.02,SSE,158,0.0,1.6,82,0.00,,,0.00,WUHU216HW,2013-01-06 12:23:00,
2013-01-06 07:28:00,41.4,36.3,30.03,SE,135,0.2,1.6,82,0.00,,,0.00,WUHU216HW,2013-01-06 12:28:00,
2013-01-06 07:33:00,41.2,36.1,30.03,SE,135,0.0,0.9,82,0.00,,,0.00,WUHU216HW,2013-01-06 12:33:00,
2013-01-06 07:38:00,41.2,36.4,30.03,West,270,0.2,1.1,83,0.00,,,0.00,WUHU216HW,2013-01-06 12:38:00,
2013-01-06 07:43:00,41.4,36.5,30.03,ENE,68,0.4,1.1,83,0.00,,,0.00,WUHU216HW,2013-01-06 12:43:00,
2013-01-06 07:48:00,41.4,36.5,30.03,NNW,338,0.0,0.9,83,0.00,,,0.00,WUHU216HW,2013-01-06 12:48:00,
2013-01-06 07:53:00,41.6,36.7,30.03,West,270,0.0,1.6,83,0.00,,,0.00,WUHU216HW,2013-01-06 12:53:00,
2013-01-06 07:58:00,41.6,36.7,30.04,West,270,0.7,1.8,83,0.00,,,0.00,WUHU216HW,2013-01-06 12:58:00,
2013-01-06 08:03:00,41.8,36.9,30.05,NE,45,0.0,2.9,83,0.00,,,0.00,WUHU216HW,2013-01-06 13:03:00,
2013-01-06 08:08:00,41.8,36.9,30.04,NW,315,0.2,2.9,83,0.00,,,0.00,WUHU216HW,2013-01-06 13:08:00,
2013-01-06 08:13:00,41.8,36.6,30.04,NW,315,0.7,1.1,82,0.00,,,0.00,WUHU216HW,2013-01-06 13:13:00,
2013-01-06 08:18:00,41.9,37.1,30.04,NNE,23,0.2,1.1,83,0.00,,,0.00,WUHU216HW,2013-01-06 13:18:00,
2013-01-06 08:23:00,41.8,36.6,30.04,WSW,248,0.4,1.1,82,0.00,,,0.00,WUHU216HW,2013-01-06 13:23:00,
2013-01-06 08:28:00,41.9,36.5,30.03,NW,315,0.4,1.6,81,0.00,,,0.00,WUHU216HW,2013-01-06 13:28:00,
2013-01-06 08:33:00,41.9,36.5,30.04,NW,315,0.4,1.6,81,0.00,,,0.00,WUHU216HW,2013-01-06 13:33:00,
2013-01-06 08:38:00,41.8,36.3,30.03,ENE,68,0.2,1.8,81,0.00,,,0.00,WUHU216HW,2013-01-06 13:38:00,
2013-01-06 08:43:00,41.8,36.3,30.04,ESE,113,1.1,1.8,81,0.00,,,0.00,WUHU216HW,2013-01-06 13:43:00,
2013-01-06 08:48:00,41.9,36.5,30.04,West,270,1.8,1.8,81,0.00,,,0.00,WUHU216HW,2013-01-06 13:48:00,
2013-01-06 08:53:00,41.9,36.5,30.04,South,180,0.4,1.8,81,0.00,,,0.00,WUHU216HW,2013-01-06 13:53:00,
2013-01-06 08:58:00,42.1,36.4,30.04,WNW,293,0.0,1.8,80,0.00,,,0.00,WUHU216HW,2013-01-06 13:58:00,
2013-01-06 09:03:00,42.1,36.4,30.05,SSE,158,0.0,1.3,80,0.00,,,0.00,WUHU216HW,2013-01-06 14:03:00,
2013-01-06 09:08:00,42.1,36.4,30.04,SW,225,0.4,1.1,80,0.00,,,0.00,WUHU216HW,2013-01-06 14:08:00,
2013-01-06 09:13:00,42.1,36.0,30.03,West,270,0.4,0.7,79,0.00,,,0.00,WUHU216HW,2013-01-06 14:13:00,
2013-01-06 09:18:00,42.1,36.0,30.04,NE,45,1.1,1.8,79,0.00,,,0.00,WUHU216HW,2013-01-06 14:18:00,
2013-01-06 09:23:00,41.9,35.6,30.04,SSE,158,0.4,1.8,78,0.00,,,0.00,WUHU216HW,2013-01-06 14:23:00,
2013-01-06 09:28:00,41.8,35.4,30.04,NW,315,0.2,1.8,78,0.00,,,0.00,WUHU216HW,2013-01-06 14:28:00,
2013-01-06 09:33:00,41.4,35.3,30.05,SW,225,1.1,1.8,79,0.00,,,0.00,WUHU216HW,2013-01-06 14:33:00,
2013-01-06 09:38:00,41.4,35.3,30.04,WNW,293,0.0,1.3,79,0.00,,,0.00,WUHU216HW,2013-01-06 14:38:00,
2013-01-06 09:43:00,41.2,34.8,30.03,NW,315,0.0,1.1,78,0.00,,,0.00,WUHU216HW,2013-01-06 14:43:00,
2013-01-06 09:48:00,41.2,34.8,30.05,West,270,0.0,1.1,78,0.00,,,0.00,WUHU216HW,2013-01-06 14:48:00,
2013-01-06 09:53:00,41.2,34.8,30.04,NNW,338,0.0,0.0,78,0.00,,,0.00,WUHU216HW,2013-01-06 14:53:00,
2013-01-06 09:58:00,41.0,34.3,30.04,NW,315,0.4,0.7,77,0.00,,,0.00,WUHU216HW,2013-01-06 14:58:00,
2013-01-06 10:03:00,41.0,34.3,30.04,WNW,293,0.0,0.9,77,0.00,,,0.00,WUHU216HW,2013-01-06 15:03:00,
2013-01-06 10:08:00,41.2,34.8,30.02,WNW,293,0.0,0.9,78,0.00,,,0.00,WUHU216HW,2013-01-06 15:08:00,
2013-01-06 10:13:00,41.4,34.7,30.03,SSW,203,1.8,2.9,77,0.00,,,0.00,WUHU216HW,2013-01-06 15:13:00,
2013-01-06 10:18:00,41.4,34.7,30.03,SW,225,0.0,2.9,77,0.00,,,0.00,WUHU216HW,2013-01-06 15:18:00,
2013-01-06 10:23:00,41.8,35.0,30.04,SW,225,0.0,1.8,77,0.00,,,0.00,WUHU216HW,2013-01-06 15:23:00,
2013-01-06 10:28:00,42.1,35.4,30.06,SW,225,0.0,0.0,77,0.00,,,0.00,WUHU216HW,2013-01-06 15:28:00,
2013-01-06 10:33:00,42.3,35.3,30.03,SW,225,0.2,0.2,76,0.00,,,0.00,WUHU216HW,2013-01-06 15:33:00,
2013-01-06 10:38:00,42.3,34.9,30.03,WSW,248,0.0,0.4,75,0.00,,,0.00,WUHU216HW,2013-01-06 15:38:00,
2013-01-06 10:43:00,42.5,34.7,30.03,NW,315,0.0,0.4,74,0.00,,,0.00,WUHU216HW,2013-01-06 15:43:00,
2013-01-06 10:48:00,42.7,34.9,30.03,North,0,0.4,0.4,74,0.00,,,0.00,WUHU216HW,2013-01-06 15:48:00,
2013-01-06 10:53:00,42.8,35.1,30.03,North,0,0.0,0.9,74,0.00,,,0.00,WUHU216HW,2013-01-06 15:53:00,
2013-01-06 10:58:00,42.8,34.8,30.03,NW,315,0.0,0.9,73,0.00,,,0.00,WUHU216HW,2013-01-06 15:58:00,
2013-01-06 11:03:00,43.0,34.7,30.02,NW,315,0.0,0.2,72,0.00,,,0.00,WUHU216HW,2013-01-06 16:03:00,
2013-01-06 11:08:00,43.2,34.2,30.02,SW,225,0.4,1.3,70,0.00,,,0.00,WUHU216HW,2013-01-06 16:08:00,
2013-01-06 11:13:00,44.1,33.9,30.02,SSE,158,0.2,1.3,67,0.00,,,0.00,WUHU216HW,2013-01-06 16:13:00,
2013-01-06 11:18:00,44.5,31.1,30.03,NW,315,0.4,3.1,59,0.00,,,0.00,WUHU216HW,2013-01-06 16:18:00,
2013-01-06 11:23:00,44.5,28.8,30.03,West,270,2.9,3.1,54,0.00,,,0.00,WUHU216HW,2013-01-06 16:23:00,
2013-01-06 11:28:00,44.6,29.9,30.03,NW,315,1.3,2.9,56,0.00,,,0.00,WUHU216HW,2013-01-06 16:28:00,
2013-01-06 11:33:00,44.8,30.1,30.03,North,0,1.1,2.5,56,0.00,,,0.00,WUHU216HW,2013-01-06 16:33:00,
2013-01-06 11:38:00,45.0,30.3,30.03,WSW,248,1.1,3.4,56,0.00,,,0.00,WUHU216HW,2013-01-06 16:38:00,
2013-01-06 11:43:00,45.0,29.8,30.02,NNE,23,2.5,3.4,55,0.00,,,0.00,WUHU216HW,2013-01-06 16:43:00,
2013-01-06 11:48:00,45.0,28.5,30.03,West,270,1.1,2.7,52,0.00,,,0.00,WUHU216HW,2013-01-06 16:48:00,
2013-01-06 11:53:00,45.2,29.0,30.02,South,180,1.1,2.7,53,0.00,,,0.00,WUHU216HW,2013-01-06 16:53:00,
2013-01-06 11:58:00,45.4,28.7,30.02,West,270,1.8,2.7,52,0.00,,,0.00,WUHU216HW,2013-01-06 16:58:00,
2013-01-06 12:03:00,45.7,28.6,30.01,WNW,293,1.8,3.4,51,0.00,,,0.00,WUHU216HW,2013-01-06 17:03:00,
2013-01-06 12:08:00,45.7,30.0,30.01,North,0,1.8,3.4,54,0.00,,,0.00,WUHU216HW,2013-01-06 17:08:00,
2013-01-06 12:13:00,45.9,30.2,30.00,North,0,1.1,1.8,54,0.00,,,0.00,WUHU216HW,2013-01-06 17:13:00,
2013-01-06 12:18:00,46.3,30.0,30.02,NNE,23,1.1,2.2,53,0.00,,,0.00,WUHU216HW,2013-01-06 17:18:00,
2013-01-06 12:23:00,46.4,29.7,30.01,NW,315,0.4,2.2,52,0.00,,,0.00,WUHU216HW,2013-01-06 17:23:00,
2013-01-06 12:28:00,47.0,29.7,30.01,North,0,2.5,2.5,51,0.00,,,0.00,WUHU216HW,2013-01-06 17:28:00,
2013-01-06 12:33:00,47.5,29.8,30.00,NNE,23,1.8,2.5,50,0.00,,,0.00,WUHU216HW,2013-01-06 17:33:00,
2013-01-06 12:38:00,48.1,29.7,29.99,NW,315,0.4,2.5,49,0.00,,,0.00,WUHU216HW,2013-01-06 17:38:00,
2013-01-06 12:43:00,48.4,29.5,30.00,North,0,0.4,1.8,48,0.00,,,0.00,WUHU216HW,2013-01-06 17:43:00,
2013-01-06 12:48:00,48.8,30.4,29.99,WNW,293,1.3,1.8,49,0.00,,,0.00,WUHU216HW,2013-01-06 17:48:00,
2013-01-06 12:53:00,49.0,29.0,29.98,NNE,23,2.0,2.5,46,0.00,,,0.00,WUHU216HW,2013-01-06 17:53:00,
2013-01-06 12:58:00,49.1,28.6,29.99,NNW,338,1.1,2.9,45,0.00,,,0.00,WUHU216HW,2013-01-06 17:58:00,
2013-01-06 13:03:00,49.0,29.5,29.99,West,270,0.7,2.9,47,0.00,,,0.00,WUHU216HW,2013-01-06 18:03:00,
2013-01-06 13:08:00,49.5,29.4,29.99,West,270,0.2,2.9,46,0.00,,,0.00,WUHU216HW,2013-01-06 18:08:00,
2013-01-06 13:13:00,50.4,29.8,29.98,West,270,2.0,2.9,45,0.00,,,0.00,WUHU216HW,2013-01-06 18:13:00,
2013-01-06 13:18:00,51.5,30.2,29.98,NNE,23,0.9,2.9,44,0.00,,,0.00,WUHU216HW,2013-01-06 18:18:00,
2013-01-06 13:23:00,52.2,29.7,29.98,NNE,23,1.3,3.1,42,0.00,,,0.00,WUHU216HW,2013-01-06 18:23:00,
2013-01-06 13:28:00,52.7,30.2,29.97,West,270,1.8,3.4,42,0.00,,,0.00,WUHU216HW,2013-01-06 18:28:00,
2013-01-06 13:33:00,52.9,29.3,29.97,SE,135,2.9,3.6,40,0.00,,,0.00,WUHU216HW,2013-01-06 18:33:00,
2013-01-06 13:38:00,51.1,28.2,29.97,West,270,2.9,3.6,41,0.00,,,0.00,WUHU216HW,2013-01-06 18:38:00,
2013-01-06 13:43:00,50.0,28.4,29.97,NNW,338,0.0,2.9,43,0.00,,,0.00,WUHU216HW,2013-01-06 18:43:00,
2013-01-06 13:48:00,49.7,28.5,29.97,WSW,248,0.4,2.5,44,0.00,,,0.00,WUHU216HW,2013-01-06 18:48:00,
2013-01-06 13:53:00,49.7,28.5,29.97,WNW,293,0.4,1.8,44,0.00,,,0.00,WUHU216HW,2013-01-06 18:53:00,
2013-01-06 13:58:00,50.0,28.9,29.97,NW,315,1.3,2.0,44,0.00,,,0.00,WUHU216HW,2013-01-06 18:58:00,
2013-01-06 14:03:00,50.2,29.6,29.97,NNW,338,0.2,2.0,45,0.00,,,0.00,WUHU216HW,2013-01-06 19:03:00,
2013-01-06 14:08:00,50.4,28.1,29.96,West,270,0.9,2.9,42,0.00,,,0.00,WUHU216HW,2013-01-06 19:08:00,
2013-01-06 14:13:00,50.8,29.0,29.97,WSW,248,0.2,2.9,43,0.00,,,0.00,WUHU216HW,2013-01-06 19:13:00,
2013-01-06 14:18:00,51.5,29.1,29.97,NNE,23,0.4,3.4,42,0.00,,,0.00,WUHU216HW,2013-01-06 19:18:00,
2013-01-06 14:23:00,52.4,27.4,29.96,WNW,293,2.7,3.4,38,0.00,,,0.00,WUHU216HW,2013-01-06 19:23:00,
2013-01-06 14:28:00,51.8,28.8,29.96,NW,315,0.9,2.7,41,0.00,,,0.00,WUHU216HW,2013-01-06 19:28:00,
2013-01-06 14:33:00,51.5,28.5,29.96,WSW,248,0.4,2.7,41,0.00,,,0.00,WUHU216HW,2013-01-06 19:33:00,
2013-01-06 14:38:00,51.7,28.1,29.96,WNW,293,2.0,2.7,40,0.00,,,0.00,WUHU216HW,2013-01-06 19:38:00,
2013-01-06 14:48:00,51.5,27.9,29.96,West,270,0.0,2.7,40,0.00,,,0.00,WUHU216HW,2013-01-06 19:48:00,
2013-01-06 14:54:00,52.0,29.0,29.96,WNW,293,0.4,2.2,41,0.00,,,0.00,WUHU216HW,2013-01-06 19:54:00,
2013-01-06 14:59:00,52.4,26.7,29.96,West,270,0.9,3.6,37,0.00,,,0.00,WUHU216HW,2013-01-06 19:59:00,
2013-01-06 15:05:00,52.2,27.2,29.96,SSW,203,1.8,3.6,38,0.00,,,0.00,WUHU216HW,2013-01-06 20:05:00,
2013-01-06 15:10:00,52.0,27.7,29.95,SW,225,1.8,2.5,39,0.00,,,0.00,WUHU216HW,2013-01-06 20:10:00,
2013-01-06 15:15:00,52.6,28.3,29.96,North,0,0.9,2.5,39,0.00,,,0.00,WUHU216HW,2013-01-06 20:15:00,
2013-01-06 15:20:00,53.3,26.8,29.96,SW,225,1.1,2.9,36,0.00,,,0.00,WUHU216HW,2013-01-06 20:20:00,
2013-01-06 15:25:00,53.6,27.8,29.95,SW,225,1.1,2.9,37,0.00,,,0.00,WUHU216HW,2013-01-06 20:25:00,
2013-01-06 15:30:00,53.6,29.2,29.96,North,0,1.3,2.5,39,0.00,,,0.00,WUHU216HW,2013-01-06 20:30:00,
2013-01-06 15:35:00,54.9,31.1,29.96,NNE,23,1.3,2.5,40,0.00,,,0.00,WUHU216HW,2013-01-06 20:35:00,
2013-01-06 15:40:00,55.8,30.4,29.97,NW,315,0.7,1.6,38,0.00,,,0.00,WUHU216HW,2013-01-06 20:40:00,
2013-01-06 15:45:00,54.4,29.2,29.96,ENE,68,1.1,1.8,38,0.00,,,0.00,WUHU216HW,2013-01-06 20:45:00,
2013-01-06 15:50:00,53.3,28.9,29.97,North,0,0.4,1.8,39,0.00,,,0.00,WUHU216HW,2013-01-06 20:50:00,
2013-01-06 15:55:00,52.0,28.5,29.97,NNW,338,1.1,1.3,40,0.00,,,0.00,WUHU216HW,2013-01-06 20:55:00,
2013-01-06 16:00:00,51.5,27.9,29.98,North,0,1.8,2.0,40,0.00,,,0.00,WUHU216HW,2013-01-06 21:00:00,
2013-01-06 16:05:00,51.3,28.4,29.98,North,0,0.9,2.0,41,0.00,,,0.00,WUHU216HW,2013-01-06 21:05:00,
2013-01-06 16:10:00,51.1,28.2,29.98,WNW,293,0.0,1.8,41,0.00,,,0.00,WUHU216HW,2013-01-06 21:10:00,
2013-01-06 16:15:00,50.8,29.0,29.97,West,270,0.0,1.8,43,0.00,,,0.00,WUHU216HW,2013-01-06 21:15:00,
2013-01-06 16:20:00,50.4,28.1,29.98,East,90,0.4,1.1,42,0.00,,,0.00,WUHU216HW,2013-01-06 21:20:00,
2013-01-06 16:25:00,50.6,28.8,29.97,NNW,338,0.0,1.1,43,0.00,,,0.00,WUHU216HW,2013-01-06 21:25:00,
2013-01-06 16:30:00,50.4,28.1,29.97,NNW,338,0.0,1.6,42,0.00,,,0.00,WUHU216HW,2013-01-06 21:30:00,
2013-01-06 16:35:00,50.4,28.1,29.98,NNW,338,0.7,2.0,42,0.00,,,0.00,WUHU216HW,2013-01-06 21:35:00,
2013-01-06 16:40:00,49.0,26.7,29.97,North,0,0.4,2.0,42,0.00,,,0.00,WUHU216HW,2013-01-06 21:40:00,
2013-01-06 16:45:00,48.1,26.5,29.97,NW,315,0.0,1.6,43,0.00,,,0.00,WUHU216HW,2013-01-06 21:45:00,
2013-01-06 16:50:00,47.9,27.4,29.98,NW,315,0.2,1.6,45,0.00,,,0.00,WUHU216HW,2013-01-06 21:50:00,
2013-01-06 16:55:00,47.5,26.6,29.97,West,270,0.4,1.3,44,0.00,,,0.00,WUHU216HW,2013-01-06 21:55:00,
2013-01-06 17:00:00,47.2,26.7,29.98,WSW,248,1.1,1.6,45,0.00,,,0.00,WUHU216HW,2013-01-06 22:00:00,
2013-01-06 17:05:00,46.6,25.8,29.98,NNW,338,0.4,2.5,44,0.00,,,0.00,WUHU216HW,2013-01-06 22:05:00,
2013-01-06 17:10:00,46.1,25.7,29.98,NNW,338,1.8,2.5,45,0.00,,,0.00,WUHU216HW,2013-01-06 22:10:00,
2013-01-06 17:15:00,45.7,25.5,29.98,NW,315,0.4,1.8,45,0.00,,,0.00,WUHU216HW,2013-01-06 22:15:00,
2013-01-06 17:20:00,45.2,25.5,29.97,WNW,293,0.0,1.1,46,0.00,,,0.00,WUHU216HW,2013-01-06 22:20:00,
2013-01-06 17:25:00,45.0,25.9,29.97,WNW,293,2.2,2.2,47,0.00,,,0.00,WUHU216HW,2013-01-06 22:25:00,
2013-01-06 17:30:00,44.5,24.8,29.98,NW,315,0.9,2.2,46,0.00,,,0.00,WUHU216HW,2013-01-06 22:30:00,
2013-01-06 17:35:00,43.9,24.9,29.98,WNW,293,0.2,2.2,47,0.00,,,0.00,WUHU216HW,2013-01-06 22:35:00,
2013-01-06 17:40:00,43.6,24.6,29.98,WNW,293,0.0,0.9,47,0.00,,,0.00,WUHU216HW,2013-01-06 22:40:00,
2013-01-06 17:45:00,43.2,24.3,29.97,WNW,293,0.9,1.1,47,0.00,,,0.00,WUHU216HW,2013-01-06 22:45:00,
2013-01-06 17:50:00,42.8,24.5,29.98,NE,45,0.4,1.1,48,0.00,,,0.00,WUHU216HW,2013-01-06 22:50:00,
2013-01-06 17:55:00,42.5,24.1,29.99,NNW,338,0.0,1.1,48,0.00,,,0.00,WUHU216HW,2013-01-06 22:55:00,
2013-01-06 18:00:00,42.1,23.8,29.98,NNW,338,0.4,1.1,48,0.00,,,0.00,WUHU216HW,2013-01-06 23:00:00,
2013-01-06 18:05:00,41.9,23.6,29.98,NNW,338,0.0,1.1,48,0.00,,,0.00,WUHU216HW,2013-01-06 23:05:00,
2013-01-06 18:10:00,41.8,23.9,29.99,South,180,1.1,1.8,49,0.00,,,0.00,WUHU216HW,2013-01-06 23:10:00,
2013-01-06 18:15:00,41.4,23.6,29.99,North,0,1.8,1.8,49,0.00,,,0.00,WUHU216HW,2013-01-06 23:15:00,
2013-01-06 18:20:00,41.2,23.4,29.99,North,0,0.9,2.0,49,0.00,,,0.00,WUHU216HW,2013-01-06 23:20:00,
2013-01-06 18:25:00,40.9,23.0,29.99,North,0,0.9,2.0,49,0.00,,,0.00,WUHU216HW,2013-01-06 23:25:00,
2013-01-06 18:30:00,40.7,23.0,29.99,North,0,2.0,2.2,49,0.00,,,0.00,WUHU216HW,2013-01-06 23:30:00,
2013-01-06 18:35:00,40.3,22.6,29.99,WNW,293,0.4,2.2,49,0.00,,,0.00,WUHU216HW,2013-01-06 23:35:00,
2013-01-06 18:40:00,40.0,22.2,29.99,North,0,0.4,2.0,49,0.00,,,0.00,WUHU216HW,2013-01-06 23:40:00,
2013-01-06 18:45:00,39.8,22.6,30.00,NNE,23,1.1,2.2,50,0.00,,,0.00,WUHU216HW,2013-01-06 23:45:00,
2013-01-06 18:50:00,39.6,22.9,30.00,NNE,23,2.2,2.9,51,0.00,,,0.00,WUHU216HW,2013-01-06 23:50:00,
2013-01-06 18:55:00,39.2,22.6,30.00,NW,315,0.4,2.9,51,0.00,,,0.00,WUHU216HW,2013-01-06 23:55:00,
2013-01-06 19:00:00,38.9,22.7,30.01,NW,315,0.2,2.2,52,0.00,,,0.00,WUHU216HW,2013-01-07 00:00:00,
2013-01-06 19:05:00,38.5,22.3,30.01,WSW,248,0.9,2.0,52,0.00,,,0.00,WUHU216HW,2013-01-07 00:05:00,
2013-01-06 19:10:00,38.3,22.6,30.01,NNW,338,1.3,2.0,53,0.00,,,0.00,WUHU216HW,2013-01-07 00:10:00,
2013-01-06 19:15:00,38.2,22.9,30.01,North,0,1.1,1.8,54,0.00,,,0.00,WUHU216HW,2013-01-07 00:15:00,
2013-01-06 19:20:00,37.8,22.6,30.01,NNW,338,0.4,1.8,54,0.00,,,0.00,WUHU216HW,2013-01-07 00:20:00,
2013-01-06 19:25:00,37.6,22.9,30.01,ENE,68,1.1,1.3,55,0.00,,,0.00,WUHU216HW,2013-01-07 00:25:00,
2013-01-06 19:30:00,37.4,23.1,30.01,North,0,2.2,2.2,56,0.00,,,0.00,WUHU216HW,2013-01-07 00:30:00,
2013-01-06 19:35:00,37.1,23.2,30.02,North,0,1.1,2.5,57,0.00,,,0.00,WUHU216HW,2013-01-07 00:35:00,
2013-01-06 19:40:00,36.7,23.3,30.02,NNW,338,1.1,2.5,58,0.00,,,0.00,WUHU216HW,2013-01-07 00:40:00,
2013-01-06 19:45:00,36.4,23.9,30.02,NW,315,0.9,2.5,60,0.00,,,0.00,WUHU216HW,2013-01-07 00:45:00,
2013-01-06 19:50:00,35.8,23.4,29.97,NW,315,0.0,2.5,60,0.00,,,0.00,WUHU216HW,2013-01-07 00:50:00,
2013-01-06 19:55:00,35.6,23.9,29.98,North,0,0.4,2.2,62,0.00,,,0.00,WUHU216HW,2013-01-07 00:55:00,
2013-01-06 20:00:00,35.3,23.9,29.97,NE,45,0.7,2.0,63,0.00,,,0.00,WUHU216HW,2013-01-07 01:00:00,
2013-01-06 20:05:00,34.9,23.9,29.98,North,0,1.1,1.8,64,0.00,,,0.00,WUHU216HW,2013-01-07 01:05:00,
2013-01-06 20:10:00,34.7,23.8,29.97,North,0,1.6,1.8,64,0.00,,,0.00,WUHU216HW,2013-01-07 01:10:00,
2013-01-06 20:15:00,34.6,23.9,30.00,NNW,338,1.1,1.6,65,0.00,,,0.00,WUHU216HW,2013-01-07 01:15:00,
2013-01-06 20:20:00,34.4,23.8,30.01,NW,315,0.4,1.6,65,0.00,,,0.00,WUHU216HW,2013-01-07 01:20:00,
2013-01-06 20:25:00,34.2,23.9,30.01,NNW,338,0.4,1.8,66,0.00,,,0.00,WUHU216HW,2013-01-07 01:25:00,
2013-01-06 20:30:00,34.2,23.9,30.02,West,270,0.2,1.8,66,0.00,,,0.00,WUHU216HW,2013-01-07 01:30:00,
2013-01-06 20:35:00,34.2,23.9,30.02,NW,315,0.4,1.6,66,0.00,,,0.00,WUHU216HW,2013-01-07 01:35:00,
2013-01-06 20:40:00,34.2,24.3,30.02,WNW,293,0.9,1.6,67,0.00,,,0.00,WUHU216HW,2013-01-07 01:40:00,
2013-01-06 20:45:00,34.0,24.1,30.01,NNE,23,0.7,1.8,67,0.00,,,0.00,WUHU216HW,2013-01-07 01:45:00,
2013-01-06 20:50:00,34.0,24.1,30.02,NW,315,0.2,1.8,67,0.00,,,0.00,WUHU216HW,2013-01-07 01:50:00,
2013-01-06 20:55:00,34.0,24.1,30.02,ENE,68,1.1,1.8,67,0.00,,,0.00,WUHU216HW,2013-01-07 01:55:00,
2013-01-06 21:00:00,34.0,24.1,30.02,NNE,23,1.3,1.8,67,0.00,,,0.00,WUHU216HW,2013-01-07 02:00:00,
2013-01-06 21:05:00,34.0,24.1,30.02,NNE,23,0.4,1.3,67,0.00,,,0.00,WUHU216HW,2013-01-07 02:05:00,
2013-01-06 21:11:00,34.0,24.5,30.02,NNE,23,1.1,2.7,68,0.00,,,0.00,WUHU216HW,2013-01-07 02:11:00,
2013-01-06 21:16:00,34.0,24.1,30.03,West,270,0.4,2.7,67,0.00,,,0.00,WUHU216HW,2013-01-07 02:16:00,
2013-01-06 21:21:00,34.0,24.1,30.04,WNW,293,1.1,1.6,67,0.00,,,0.00,WUHU216HW,2013-01-07 02:21:00,
2013-01-06 21:26:00,34.0,24.1,30.02,NW,315,0.7,1.6,67,0.00,,,0.00,WUHU216HW,2013-01-07 02:26:00,
2013-01-06 21:31:00,34.0,24.1,30.03,North,0,0.9,1.8,67,0.00,,,0.00,WUHU216HW,2013-01-07 02:31:00,
2013-01-06 21:36:00,34.0,24.1,30.03,NNE,23,0.9,2.0,67,0.00,,,0.00,WUHU216HW,2013-01-07 02:36:00,
2013-01-06 21:41:00,34.0,24.1,30.05,NNE,23,1.8,2.0,67,0.00,,,0.00,WUHU216HW,2013-01-07 02:41:00,
2013-01-06 21:46:00,34.0,24.5,30.04,ENE,68,0.7,1.8,68,0.00,,,0.00,WUHU216HW,2013-01-07 02:46:00,
2013-01-06 21:51:00,34.0,24.5,30.01,NNE,23,0.4,1.8,68,0.00,,,0.00,WUHU216HW,2013-01-07 02:51:00,
2013-01-06 21:56:00,34.0,24.5,30.03,ENE,68,0.4,2.0,68,0.00,,,0.00,WUHU216HW,2013-01-07 02:56:00,
2013-01-06 22:01:00,34.0,24.5,30.04,North,0,0.4,2.0,68,0.00,,,0.00,WUHU216HW,2013-01-07 03:01:00,
2013-01-06 22:06:00,34.0,24.5,30.04,NNW,338,0.9,1.8,68,0.00,,,0.00,WUHU216HW,2013-01-07 03:06:00,
2013-01-06 22:11:00,34.0,24.5,30.05,North,0,0.7,1.8,68,0.00,,,0.00,WUHU216HW,2013-01-07 03:11:00,
2013-01-06 22:16:00,34.0,24.5,30.04,North,0,0.4,2.9,68,0.00,,,0.00,WUHU216HW,2013-01-07 03:16:00,
2013-01-06 22:21:00,34.2,24.7,30.04,SSW,203,0.0,2.9,68,0.00,,,0.00,WUHU216HW,2013-01-07 03:21:00,
2013-01-06 22:26:00,34.2,24.7,30.05,NNE,23,0.9,2.0,68,0.00,,,0.00,WUHU216HW,2013-01-07 03:26:00,
2013-01-06 22:31:00,34.0,24.8,30.04,ENE,68,1.1,1.8,69,0.00,,,0.00,WUHU216HW,2013-01-07 03:31:00,
2013-01-06 22:36:00,34.0,24.8,30.05,SSW,203,0.0,1.8,69,0.00,,,0.00,WUHU216HW,2013-01-07 03:36:00,
2013-01-06 22:41:00,34.0,24.8,30.04,NNW,338,0.4,2.2,69,0.00,,,0.00,WUHU216HW,2013-01-07 03:41:00,
2013-01-06 22:46:00,34.0,24.8,30.05,North,0,1.6,2.2,69,0.00,,,0.00,WUHU216HW,2013-01-07 03:46:00,
2013-01-06 22:51:00,34.0,24.8,30.06,North,0,2.5,3.4,69,0.00,,,0.00,WUHU216HW,2013-01-07 03:51:00,
2013-01-06 22:56:00,34.2,25.0,30.05,NNW,338,1.1,3.4,69,0.00,,,0.00,WUHU216HW,2013-01-07 03:56:00,
2013-01-06 23:01:00,34.0,24.8,30.06,North,0,1.1,3.1,69,0.00,,,0.00,WUHU216HW,2013-01-07 04:01:00,
2013-01-06 23:06:00,34.0,24.5,30.07,NW,315,0.4,2.5,68,0.00,,,0.00,WUHU216HW,2013-01-07 04:06:00,
2013-01-06 23:11:00,34.0,24.8,30.07,NW,315,0.4,2.5,69,0.00,,,0.00,WUHU216HW,2013-01-07 04:11:00,
2013-01-06 23:16:00,34.0,24.5,30.08,SW,225,1.1,1.8,68,0.00,,,0.00,WUHU216HW,2013-01-07 04:16:00,
2013-01-06 23:21:00,34.0,24.5,30.08,NW,315,0.0,1.1,68,0.00,,,0.00,WUHU216HW,2013-01-07 04:21:00,
2013-01-06 23:26:00,34.0,24.5,30.08,ESE,113,0.4,1.3,68,0.00,,,0.00,WUHU216HW,2013-01-07 04:26:00,
2013-01-06 23:31:00,34.0,24.5,30.08,SSE,158,0.4,1.3,68,0.00,,,0.00,WUHU216HW,2013-01-07 04:31:00,
2013-01-06 23:36:00,34.0,24.5,30.07,NNW,338,0.2,1.6,68,0.00,,,0.00,WUHU216HW,2013-01-07 04:36:00,
2013-01-06 23:41:00,33.8,24.3,30.07,ENE,68,0.0,1.6,68,0.00,,,0.00,WUHU216HW,2013-01-07 04:41:00,
2013-01-06 23:46:00,33.8,24.3,30.07,SE,135,0.4,1.8,68,0.00,,,0.00,WUHU216HW,2013-01-07 04:46:00,
2013-01-06 23:51:00,33.8,24.3,30.08,South,180,0.4,1.8,68,0.00,,,0.00,WUHU216HW,2013-01-07 04:51:00,
2013-01-06 23:56:00,33.8,24.3,30.08,East,90,0.0,1.1,68,0.00,,,0.00,WUHU216HW,2013-01-07 04:56:00,